Terminal Aerodrome Forecast
Issued by NWS

Home | Current Version | Previous Version | Text Only | Print | Product List | Glossary On
Versions: 1 2 3 4 5 6 7 8 9 10 11 12 13 14 15 16 17 18 19 20 21 22 23
000
FTUS46 KMTR 190900 AAA
TAFSFO
TAF AMD
KSFO 190924Z 1909/2012 30010KT P6SM FEW004
      TEMPO 1909/1913 P6SM BKN004
     FM191300 27002KT P6SM BKN004
     FM191700 VRB04KT P6SM SCT005
     FM192200 29014KT P6SM FEW008 SCT030
     FM200400 29009KT P6SM FEW010 SCT030=

USA.gov is the U.S. government's official web portal to all federal, state and local government web resources and services.